createdAt,value
2023-01-25T00:00:00.905Z,55.75
2023-01-25T00:02:32.662Z,61.90
2023-01-25T00:05:04.936Z,59.08
2023-01-25T00:07:36.769Z,62.95
2023-01-25T00:10:09.116Z,62.55
2023-01-25T00:12:40.829Z,59.90
2023-01-25T00:15:12.610Z,58.58
2023-01-25T00:17:44.353Z,54.85
2023-01-25T00:20:16.607Z,58.35
2023-01-25T00:22:48.291Z,59.00
2023-01-25T00:25:19.934Z,56.00
2023-01-25T00:27:52.435Z,57.65
2023-01-25T00:30:24.140Z,56.38
2023-01-25T00:33:29.473Z,59.83
2023-01-25T00:36:01.743Z,54.40
2023-01-25T00:38:38.591Z,51.83
2023-01-25T00:41:10.419Z,52.10
2023-01-25T00:43:42.458Z,55.97
2023-01-25T00:46:17.184Z,51.03
2023-01-25T00:48:49.495Z,50.63
2023-01-25T00:51:22.706Z,51.25
2023-01-25T00:53:54.614Z,52.63
2023-01-25T00:59:00.721Z,53.00
2023-01-25T01:01:34.124Z,52.45
2023-01-25T01:04:06.671Z,56.85
2023-01-25T01:06:39.933Z,56.42
2023-01-25T01:09:14.832Z,52.78
2023-01-25T01:14:18.717Z,51.85
2023-01-25T01:16:50.550Z,56.90
2023-01-25T01:19:23.626Z,55.28
2023-01-25T01:21:55.915Z,53.17
2023-01-25T01:24:27.689Z,55.30
2023-01-25T01:26:59.382Z,59.50
2023-01-25T01:29:32.246Z,61.97
2023-01-25T01:32:05.084Z,50.88
2023-01-25T01:34:36.945Z,56.08
2023-01-25T01:37:08.668Z,50.92
2023-01-25T01:39:40.551Z,52.92
2023-01-25T01:42:12.475Z,55.85
2023-01-25T01:44:53.315Z,50.45
2023-01-25T01:47:31.694Z,55.10
2023-01-25T01:50:28.866Z,54.25
2023-01-25T01:53:00.689Z,53.15
2023-01-25T01:55:32.622Z,55.90
2023-01-25T01:58:06.507Z,55.30
2023-01-25T02:00:40.701Z,54.60
2023-01-25T02:03:14.868Z,54.10
2023-01-25T02:06:04.842Z,54.10
2023-01-25T02:08:40.814Z,48.80
2023-01-25T02:11:13.748Z,51.03
2023-01-25T02:13:45.679Z,55.15
2023-01-25T02:16:26.136Z,51.33
2023-01-25T02:19:02.142Z,57.08
2023-01-25T02:21:43.213Z,51.90
2023-01-25T02:24:28.043Z,53.63
2023-01-25T02:27:01.221Z,55.03
2023-01-25T02:29:33.392Z,53.70
2023-01-25T02:32:06.575Z,49.85
2023-01-25T02:34:38.304Z,52.30
2023-01-25T02:37:14.520Z,53.45
2023-01-25T02:39:46.381Z,56.75
2023-01-25T02:42:18.313Z,54.40
2023-01-25T02:44:51.345Z,49.75
2023-01-25T02:47:23.026Z,55.90
2023-01-25T02:49:54.691Z,54.55
2023-01-25T02:52:26.778Z,51.88
2023-01-25T02:55:00.752Z,50.33
2023-01-25T02:57:32.961Z,52.08
2023-01-25T03:00:06.603Z,48.53
2023-01-25T03:02:41.559Z,56.00
2023-01-25T03:05:13.264Z,53.50
2023-01-25T03:07:44.980Z,50.63
2023-01-25T03:10:16.790Z,50.88
2023-01-25T03:12:48.591Z,50.72
2023-01-25T03:15:23.384Z,47.70
2023-01-25T03:17:56.745Z,49.67
2023-01-25T03:20:28.596Z,44.72
2023-01-25T03:23:00.273Z,50.33
2023-01-25T03:25:32.735Z,49.55
2023-01-25T03:28:13.648Z,49.22
2023-01-25T03:30:49.941Z,44.55
2023-01-25T03:33:22.271Z,54.75
2023-01-25T03:35:55.095Z,50.85
2023-01-25T03:38:27.600Z,50.92
2023-01-25T03:40:59.604Z,52.17
2023-01-25T03:43:32.529Z,51.22
2023-01-25T03:46:08.118Z,51.40
2023-01-25T03:51:11.641Z,49.85
2023-01-25T03:53:46.674Z,50.25
2023-01-25T03:56:21.299Z,50.28
2023-01-25T03:59:06.837Z,44.67
2023-01-25T04:01:40.059Z,46.38
2023-01-25T04:04:12.703Z,47.05
2023-01-25T04:06:46.484Z,53.38
2023-01-25T04:09:21.703Z,49.67
2023-01-25T04:11:56.852Z,44.80
2023-01-25T04:14:43.658Z,52.40
2023-01-25T04:17:17.568Z,50.90
2023-01-25T04:19:57.030Z,53.53
2023-01-25T04:22:33.626Z,50.10
2023-01-25T04:25:06.340Z,49.60
2023-01-25T04:27:38.769Z,52.17
2023-01-25T04:30:18.817Z,57.65
2023-01-25T04:32:53.047Z,48.50
2023-01-25T04:35:35.070Z,48.78
2023-01-25T04:38:10.755Z,47.65
2023-01-25T04:40:46.196Z,49.25
2023-01-25T04:43:19.170Z,49.35
2023-01-25T04:45:56.791Z,48.70
2023-01-25T04:48:34.294Z,52.38
2023-01-25T04:53:41.655Z,50.65
2023-01-25T04:56:15.162Z,53.15
2023-01-25T04:58:55.211Z,48.00
2023-01-25T05:01:27.114Z,47.83
2023-01-25T05:03:59.880Z,48.22
2023-01-25T05:06:42.486Z,49.38
2023-01-25T05:09:15.057Z,43.38
2023-01-25T05:11:46.966Z,52.58
2023-01-25T05:14:44.721Z,47.90
2023-01-25T05:17:19.658Z,49.40
2023-01-25T05:22:26.184Z,39.27
2023-01-25T05:24:59.255Z,51.10
2023-01-25T05:27:31.096Z,51.85
2023-01-25T05:30:02.761Z,56.15
2023-01-25T05:33:00.461Z,49.92
2023-01-25T05:35:32.196Z,46.67
2023-01-25T05:38:04.486Z,49.20
2023-01-25T05:40:36.150Z,48.40
2023-01-25T05:43:08.740Z,47.47
2023-01-25T05:45:40.561Z,47.78
2023-01-25T05:48:13.283Z,47.28
2023-01-25T05:50:44.897Z,47.20
2023-01-25T05:53:26.074Z,47.45
2023-01-25T05:56:06.671Z,46.30
2023-01-25T05:58:39.664Z,47.65
2023-01-25T06:01:11.929Z,43.75
2023-01-25T06:03:52.700Z,43.17
2023-01-25T06:06:25.198Z,46.42
2023-01-25T06:08:58.135Z,46.63
2023-01-25T06:11:36.346Z,45.60
2023-01-25T06:14:10.454Z,42.67
2023-01-25T06:16:42.641Z,45.35
2023-01-25T06:19:39.387Z,41.22
2023-01-25T06:22:14.656Z,44.03
2023-01-25T06:24:46.364Z,40.38
2023-01-25T06:27:18.070Z,40.70
2023-01-25T06:29:50.472Z,42.13
2023-01-25T06:32:22.205Z,43.97
2023-01-25T06:34:55.897Z,45.50
2023-01-25T06:37:29.468Z,48.08
2023-01-25T06:40:01.252Z,41.80
2023-01-25T06:42:32.878Z,43.92
2023-01-25T06:45:04.987Z,41.05
2023-01-25T06:47:36.608Z,38.25
2023-01-25T06:50:09.848Z,41.35
2023-01-25T06:52:41.523Z,37.50
2023-01-25T06:55:14.995Z,38.97
2023-01-25T06:57:46.862Z,38.70
2023-01-25T07:00:19.488Z,39.17
2023-01-25T07:02:51.251Z,36.25
2023-01-25T07:05:25.757Z,36.28
2023-01-25T07:07:58.240Z,35.08
2023-01-25T07:10:30.434Z,34.03
2023-01-25T07:13:03.081Z,35.70
2023-01-25T07:15:34.752Z,35.83
2023-01-25T07:18:15.920Z,34.72
2023-01-25T07:20:50.705Z,33.55
2023-01-25T07:23:22.354Z,35.40
2023-01-25T07:25:54.037Z,38.03
2023-01-25T07:28:25.716Z,36.83
2023-01-25T07:31:03.757Z,33.83
2023-01-25T07:33:35.802Z,35.78
2023-01-25T07:36:10.048Z,33.83
2023-01-25T07:38:41.909Z,33.23
2023-01-25T07:41:14.695Z,34.13
2023-01-25T07:43:47.189Z,40.00
2023-01-25T07:46:25.514Z,38.13
2023-01-25T07:48:58.878Z,39.45
2023-01-25T07:51:31.162Z,32.40
2023-01-25T07:54:05.388Z,34.42
2023-01-25T07:56:38.478Z,35.00
2023-01-25T07:59:10.770Z,35.72
2023-01-25T08:01:43.671Z,31.50
2023-01-25T08:04:16.651Z,32.33
2023-01-25T08:06:48.445Z,35.92
2023-01-25T08:09:20.383Z,33.42
2023-01-25T08:11:53.692Z,36.75
2023-01-25T08:14:25.606Z,35.60
2023-01-25T08:16:57.358Z,33.30
2023-01-25T08:19:29.005Z,34.47
2023-01-25T08:22:02.927Z,36.95
2023-01-25T08:24:37.654Z,37.85
2023-01-25T08:27:09.393Z,35.78
2023-01-25T08:29:41.018Z,38.45
2023-01-25T08:32:12.815Z,39.78
2023-01-25T08:34:47.490Z,34.35
2023-01-25T08:37:20.028Z,33.50
2023-01-25T08:39:51.802Z,35.33
2023-01-25T08:42:26.595Z,40.90
2023-01-25T08:47:30.500Z,37.63
2023-01-25T08:50:03.063Z,36.00
2023-01-25T08:52:37.591Z,36.92
2023-01-25T08:55:10.772Z,40.50
2023-01-25T08:57:42.817Z,37.58
2023-01-25T09:00:15.092Z,41.10
2023-01-25T09:02:48.443Z,39.40
2023-01-25T09:05:20.077Z,39.38
2023-01-25T09:07:51.734Z,40.75
2023-01-25T09:10:23.525Z,38.15
2023-01-25T09:12:55.515Z,42.55
2023-01-25T09:15:29.664Z,37.55
2023-01-25T09:18:01.451Z,37.40
2023-01-25T09:20:34.554Z,41.53
2023-01-25T09:23:06.542Z,38.40
2023-01-25T09:25:38.244Z,37.42
2023-01-25T09:28:11.619Z,36.55
2023-01-25T09:30:48.294Z,38.25
2023-01-25T09:33:36.742Z,38.03
2023-01-25T09:36:09.956Z,41.45
2023-01-25T09:38:41.921Z,39.22
2023-01-25T09:41:41.902Z,38.25
2023-01-25T09:44:45.303Z,38.03
2023-01-25T09:47:27.549Z,38.63
2023-01-25T09:50:17.035Z,36.50
2023-01-25T09:53:21.898Z,39.05
2023-01-25T09:56:01.316Z,37.28
2023-01-25T09:58:39.744Z,37.47
2023-01-25T10:01:38.482Z,39.00
2023-01-25T10:04:18.805Z,34.83
2023-01-25T10:07:01.306Z,41.65
2023-01-25T10:09:42.725Z,34.85
2023-01-25T10:12:25.753Z,40.65
2023-01-25T10:14:57.457Z,39.80
2023-01-25T10:17:40.705Z,38.60
2023-01-25T10:20:24.237Z,38.42
2023-01-25T10:23:40.011Z,39.45
2023-01-25T10:26:35.864Z,38.15
2023-01-25T10:29:27.542Z,35.60
2023-01-25T10:32:35.911Z,35.20
2023-01-25T10:35:34.831Z,36.50
2023-01-25T10:38:30.979Z,29.50
2023-01-25T10:41:28.818Z,35.37
2023-01-25T10:44:18.971Z,36.08
2023-01-25T10:47:11.673Z,32.63
2023-01-25T10:49:55.015Z,34.20
2023-01-25T10:52:32.268Z,31.90
2023-01-25T10:55:07.384Z,34.03
2023-01-25T10:57:44.327Z,31.95
2023-01-25T11:00:35.609Z,28.85
2023-01-25T11:03:22.582Z,35.35
2023-01-25T11:05:57.061Z,39.00
2023-01-25T11:08:38.643Z,34.97
2023-01-25T11:11:36.219Z,31.17
2023-01-25T11:14:17.627Z,34.78
2023-01-25T11:16:49.642Z,31.25
2023-01-25T11:19:43.560Z,33.13
2023-01-25T11:22:24.791Z,32.85
2023-01-25T11:24:56.538Z,30.77
2023-01-25T11:27:28.501Z,32.60
2023-01-25T11:30:06.581Z,34.47
2023-01-25T11:32:40.313Z,30.88
2023-01-25T11:35:34.515Z,33.03
2023-01-25T11:38:14.463Z,22.23
2023-01-25T11:40:51.037Z,26.35
2023-01-25T11:43:48.345Z,24.58
2023-01-25T11:47:01.757Z,28.58
2023-01-25T11:49:51.363Z,23.45
2023-01-25T11:52:46.378Z,26.95
2023-01-25T11:55:34.298Z,28.10
2023-01-25T11:59:16.710Z,21.42
2023-01-25T12:02:00.066Z,21.20
2023-01-25T12:04:50.117Z,27.92
2023-01-25T12:07:46.738Z,22.95
2023-01-25T12:10:34.578Z,28.65
2023-01-25T12:13:18.277Z,22.98
2023-01-25T12:15:58.798Z,26.00
2023-01-25T12:19:02.015Z,23.02
2023-01-25T12:21:41.481Z,23.55
2023-01-25T12:24:50.103Z,23.50
2023-01-25T12:27:48.741Z,23.35
2023-01-25T12:30:51.265Z,23.52
2023-01-25T12:33:28.191Z,23.40
2023-01-25T12:36:08.774Z,25.25
2023-01-25T12:38:53.038Z,21.55
2023-01-25T12:41:46.402Z,19.57
2023-01-25T12:44:50.314Z,24.08
2023-01-25T12:47:33.397Z,22.70
2023-01-25T12:50:23.340Z,21.98
2023-01-25T12:53:01.747Z,22.10
2023-01-25T12:55:33.693Z,23.17
2023-01-25T12:58:43.869Z,19.98
2023-01-25T13:01:46.773Z,20.67
2023-01-25T13:04:37.316Z,20.65
2023-01-25T13:07:14.775Z,23.02
2023-01-25T13:10:18.933Z,23.90
2023-01-25T13:13:03.218Z,19.33
2023-01-25T13:15:36.319Z,20.10
2023-01-25T13:18:30.138Z,22.08
2023-01-25T13:21:05.553Z,21.95
2023-01-25T13:23:43.825Z,21.08
2023-01-25T13:26:21.657Z,21.17
2023-01-25T13:28:59.649Z,25.13
2023-01-25T13:31:53.071Z,21.00
2023-01-25T13:34:40.334Z,23.17
2023-01-25T13:37:29.103Z,23.23
2023-01-25T13:40:34.470Z,24.02
2023-01-25T13:43:19.099Z,22.30
2023-01-25T13:45:53.104Z,21.23
2023-01-25T13:48:28.684Z,22.85
2023-01-25T13:51:10.898Z,24.10
2023-01-25T13:53:43.416Z,24.35
2023-01-25T13:56:30.650Z,22.92
2023-01-25T13:59:02.932Z,26.73
2023-01-25T14:01:36.969Z,25.40
2023-01-25T14:04:12.316Z,24.30
2023-01-25T14:06:45.173Z,25.38
2023-01-25T14:09:20.899Z,24.40
2023-01-25T14:11:58.468Z,26.52
2023-01-25T14:14:35.322Z,24.65
2023-01-25T14:17:09.950Z,25.13
2023-01-25T14:22:33.426Z,26.17
2023-01-25T14:25:15.533Z,25.92
2023-01-25T14:27:59.131Z,26.35
2023-01-25T14:30:32.802Z,22.95
2023-01-25T14:33:18.436Z,28.55
2023-01-25T14:35:57.400Z,28.15
2023-01-25T14:38:36.124Z,24.20
2023-01-25T14:41:43.761Z,23.77
2023-01-25T14:44:21.267Z,24.80
2023-01-25T14:47:26.655Z,27.55
2023-01-25T14:50:30.730Z,25.30
2023-01-25T14:53:24.561Z,23.70
2023-01-25T14:55:57.429Z,32.38
2023-01-25T14:58:31.611Z,28.83
2023-01-25T15:01:03.776Z,27.58
2023-01-25T15:03:44.732Z,29.27
2023-01-25T15:06:17.007Z,30.50
2023-01-25T15:08:48.943Z,33.83
2023-01-25T15:11:38.647Z,33.45
2023-01-25T15:14:17.375Z,32.22
2023-01-25T15:16:50.698Z,29.20
2023-01-25T15:19:30.221Z,33.70
2023-01-25T15:22:01.933Z,35.25
2023-01-25T15:24:33.747Z,33.33
2023-01-25T15:27:05.457Z,30.63
2023-01-25T15:29:38.673Z,30.35
2023-01-25T15:32:20.712Z,33.45
2023-01-25T15:35:00.769Z,31.83
2023-01-25T15:37:32.511Z,32.35
2023-01-25T15:40:04.654Z,34.95
2023-01-25T15:42:39.646Z,32.70
2023-01-25T15:45:13.651Z,35.10
2023-01-25T15:47:45.804Z,28.92
2023-01-25T15:50:21.642Z,31.55
2023-01-25T15:52:53.354Z,34.55
2023-01-25T15:55:25.386Z,37.58
2023-01-25T15:57:57.808Z,38.58
2023-01-25T16:00:29.493Z,38.50
2023-01-25T16:03:01.143Z,43.58
2023-01-25T16:05:32.869Z,35.50
2023-01-25T16:08:06.526Z,38.97
2023-01-25T16:10:38.275Z,40.47
2023-01-25T16:13:10.725Z,35.13
2023-01-25T16:15:42.995Z,39.63
2023-01-25T16:18:15.200Z,33.85
2023-01-25T16:20:48.765Z,38.83
2023-01-25T16:23:20.395Z,36.33
2023-01-25T16:25:52.143Z,36.67
2023-01-25T16:28:24.547Z,39.47
2023-01-25T16:30:57.904Z,44.55
2023-01-25T16:33:29.668Z,39.53
2023-01-25T16:36:13.029Z,37.78
2023-01-25T16:38:45.060Z,41.88
2023-01-25T16:41:17.275Z,39.00
2023-01-25T16:43:49.145Z,39.45
2023-01-25T16:46:23.034Z,44.70
2023-01-25T16:48:57.835Z,38.43
2023-01-25T16:54:04.630Z,37.42
2023-01-25T16:56:36.301Z,38.10
2023-01-25T16:59:09.427Z,35.53
2023-01-25T17:01:41.911Z,38.92
2023-01-25T17:04:15.461Z,40.60
2023-01-25T17:06:49.995Z,37.28
2023-01-25T17:09:24.988Z,38.05
2023-01-25T17:11:57.220Z,37.53
2023-01-25T17:14:28.909Z,41.50
2023-01-25T17:17:01.750Z,34.42
2023-01-25T17:19:37.287Z,38.53
2023-01-25T17:22:09.489Z,42.95
2023-01-25T17:24:41.345Z,38.10
2023-01-25T17:27:13.067Z,34.17
2023-01-25T17:29:46.433Z,40.05
2023-01-25T17:32:18.218Z,30.88
2023-01-25T17:34:50.446Z,32.70
2023-01-25T17:37:23.616Z,36.75
2023-01-25T17:39:55.476Z,34.40
2023-01-25T17:42:27.164Z,33.63
2023-01-25T17:44:58.980Z,34.70
2023-01-25T17:47:31.741Z,33.70
2023-01-25T17:50:03.998Z,37.38
2023-01-25T17:52:35.810Z,34.65
2023-01-25T17:55:10.363Z,36.40
2023-01-25T17:57:43.261Z,34.70
2023-01-25T18:00:15.521Z,34.70
2023-01-25T18:02:47.791Z,34.63
2023-01-25T18:05:19.615Z,33.05
2023-01-25T18:07:53.317Z,31.55
2023-01-25T18:10:26.407Z,33.97
2023-01-25T18:13:04.477Z,30.85
2023-01-25T18:15:39.901Z,35.05
2023-01-25T18:20:54.849Z,29.38
2023-01-25T18:23:27.008Z,32.72
2023-01-25T18:26:00.941Z,32.72
2023-01-25T18:28:40.047Z,38.78
2023-01-25T18:31:17.787Z,31.85
2023-01-25T18:33:55.636Z,33.08
2023-01-25T18:36:30.448Z,35.40
2023-01-25T18:41:33.997Z,32.28
2023-01-25T18:44:07.365Z,37.70
2023-01-25T18:46:43.135Z,37.25
2023-01-25T18:49:14.930Z,35.75
2023-01-25T18:52:05.203Z,36.63
2023-01-25T18:54:47.196Z,40.00
2023-01-25T18:59:57.453Z,35.00
2023-01-25T19:02:30.924Z,37.13
2023-01-25T19:05:02.709Z,40.60
2023-01-25T19:07:34.543Z,40.92
2023-01-25T19:10:07.402Z,39.50
2023-01-25T19:12:39.124Z,42.72
2023-01-25T19:15:11.410Z,38.28
2023-01-25T19:17:46.557Z,44.50
2023-01-25T19:20:18.503Z,39.55
2023-01-25T19:22:54.204Z,44.22
2023-01-25T19:25:26.438Z,44.92
2023-01-25T19:27:59.114Z,42.05
2023-01-25T19:30:31.648Z,39.08
2023-01-25T19:33:03.534Z,39.33
2023-01-25T19:35:35.299Z,44.25
2023-01-25T19:38:07.923Z,39.55
2023-01-25T19:40:40.777Z,40.65
2023-01-25T19:43:12.984Z,39.08
2023-01-25T19:45:44.776Z,41.28
2023-01-25T19:48:16.566Z,39.90
2023-01-25T19:50:52.323Z,39.72
2023-01-25T19:53:26.134Z,41.00
2023-01-25T19:56:01.821Z,41.15
2023-01-25T19:58:34.252Z,37.70
2023-01-25T20:01:10.907Z,38.85
2023-01-25T20:03:43.251Z,41.47
2023-01-25T20:06:17.915Z,36.85
2023-01-25T20:08:49.700Z,41.90
2023-01-25T20:11:27.453Z,37.03
2023-01-25T20:14:02.222Z,39.78
2023-01-25T20:16:36.106Z,38.17
2023-01-25T20:19:07.807Z,36.42
2023-01-25T20:21:42.022Z,35.22
2023-01-25T20:24:16.769Z,35.53
2023-01-25T20:26:49.041Z,38.70
2023-01-25T20:29:21.505Z,33.03
2023-01-25T20:31:54.552Z,34.95
2023-01-25T20:34:26.889Z,33.80
2023-01-25T20:37:00.327Z,32.25
2023-01-25T20:39:31.991Z,35.40
2023-01-25T20:42:03.793Z,34.15
2023-01-25T20:44:35.518Z,29.55
2023-01-25T20:47:07.238Z,34.38
2023-01-25T20:49:41.887Z,35.47
2023-01-25T20:52:13.974Z,34.88
2023-01-25T20:54:45.676Z,39.33
2023-01-25T20:57:17.354Z,37.60
2023-01-25T20:59:49.818Z,38.45
2023-01-25T21:02:21.548Z,37.08
2023-01-25T21:04:54.012Z,34.55
2023-01-25T21:07:25.696Z,32.95
2023-01-25T21:09:57.337Z,32.78
2023-01-25T21:12:35.174Z,35.75
2023-01-25T21:15:11.016Z,37.50
2023-01-25T21:17:42.999Z,32.53
2023-01-25T21:20:15.183Z,31.83
2023-01-25T21:22:47.248Z,32.70
2023-01-25T21:25:18.961Z,31.55
2023-01-25T21:27:51.058Z,33.20
2023-01-25T21:30:25.656Z,32.47
2023-01-25T21:32:57.416Z,30.98
2023-01-25T21:35:29.566Z,32.08
2023-01-25T21:38:04.247Z,31.67
2023-01-25T21:40:38.798Z,33.85
2023-01-25T21:43:12.194Z,35.15
2023-01-25T21:46:05.019Z,31.42
2023-01-25T21:49:03.718Z,28.75
2023-01-25T21:51:35.400Z,32.83
2023-01-25T21:54:10.346Z,32.83
2023-01-25T21:56:42.735Z,35.60
2023-01-25T21:59:15.166Z,37.55
2023-01-25T22:01:47.527Z,37.67
2023-01-25T22:04:22.203Z,39.78
2023-01-25T22:06:55.112Z,37.80
2023-01-25T22:09:27.307Z,30.50
2023-01-25T22:12:01.810Z,33.03
2023-01-25T22:14:34.810Z,35.03
2023-01-25T22:17:06.509Z,39.10
2023-01-25T22:19:38.257Z,39.70
2023-01-25T22:22:12.686Z,33.85
2023-01-25T22:24:44.836Z,40.67
2023-01-25T22:27:44.839Z,36.67
2023-01-25T22:30:17.342Z,38.30
2023-01-25T22:32:49.014Z,31.55
2023-01-25T22:35:20.725Z,35.00
2023-01-25T22:37:52.424Z,40.83
2023-01-25T22:40:26.736Z,40.15
2023-01-25T22:42:58.428Z,39.15
2023-01-25T22:45:30.172Z,38.42
2023-01-25T22:48:01.839Z,38.60
2023-01-25T22:50:33.569Z,36.50
2023-01-25T22:53:06.525Z,35.00
2023-01-25T22:55:38.218Z,37.40
2023-01-25T22:58:10.708Z,35.40
2023-01-25T23:00:45.946Z,37.65
2023-01-25T23:03:17.624Z,41.75
2023-01-25T23:05:50.625Z,44.63
2023-01-25T23:08:22.281Z,35.35
2023-01-25T23:10:59.903Z,37.72
2023-01-25T23:13:31.761Z,39.38
2023-01-25T23:16:05.082Z,38.22
2023-01-25T23:18:52.115Z,38.08
2023-01-25T23:21:27.310Z,42.38
2023-01-25T23:24:01.029Z,41.47
2023-01-25T23:26:38.019Z,44.35
2023-01-25T23:29:12.672Z,41.72
2023-01-25T23:31:44.838Z,39.47
2023-01-25T23:34:19.224Z,43.35
2023-01-25T23:36:50.975Z,40.92
2023-01-25T23:39:28.682Z,39.45
2023-01-25T23:42:00.341Z,42.85
2023-01-25T23:44:34.664Z,41.20
2023-01-25T23:47:06.367Z,43.90
2023-01-25T23:49:38.138Z,38.25
2023-01-25T23:52:09.951Z,38.88
2023-01-25T23:54:41.587Z,42.78
2023-01-25T23:57:13.352Z,40.70
2023-01-25T23:59:45.039Z,40.67
